Time;durP1;ratioP1;P1;durP2;ratioP2;P2;SDS_P1;SDS_P2;PMS_P1;PMS_P2;Temp;Humidity;BMP_temperature;BMP_pressure;BME280_temperature;BME280_humidity;BME280_pressure;Samples;Min_cycle;Max_cycle;Signal;HPM_P1;HPM_P2
2021/01/16 00:00:53;;;;;;;29.77;17.20;;;-1.70;99.90;;;;;;5056542;28;20082;-74
2021/01/16 00:03:20;;;;;;;43.90;23.15;;;-1.80;99.90;;;;;;5086509;28;20134;-75
2021/01/16 00:05:50;;;;;;;40.47;23.40;;;-1.70;99.90;;;;;;5087775;28;20074;-75
2021/01/16 00:08:22;;;;;;;41.28;23.55;;;-1.70;99.90;;;;;;5050139;28;20399;-76
2021/01/16 00:10:58;;;;;;;45.20;24.85;;;-1.80;99.90;;;;;;5078156;28;20079;-75
2021/01/16 00:13:26;;;;;;;42.67;23.48;;;-1.70;99.90;;;;;;5085108;28;20058;-75
2021/01/16 00:15:54;;;;;;;43.30;23.48;;;-1.70;99.90;;;;;;5086866;28;20076;-74
2021/01/16 00:18:23;;;;;;;45.13;24.40;;;-1.70;99.90;;;;;;5054339;28;20180;-76
2021/01/16 00:20:54;;;;;;;47.17;25.15;;;-1.70;99.90;;;;;;5087568;28;20032;-74
2021/01/16 00:23:23;;;;;;;42.50;22.92;;;-1.80;99.90;;;;;;5087073;28;20075;-75
2021/01/16 00:25:50;;;;;;;48.63;25.35;;;-1.80;99.90;;;;;;5059676;28;20125;-75
2021/01/16 00:28:31;;;;;;;47.72;25.48;;;-1.80;99.90;;;;;;5059714;28;20140;-74
2021/01/16 00:31:02;;;;;;;45.45;24.92;;;-1.80;99.90;;;;;;5049701;28;20139;-75
2021/01/16 00:33:33;;;;;;;48.22;26.38;;;-1.80;99.90;;;;;;5077992;28;20048;-74
2021/01/16 00:36:04;;;;;;;52.20;27.50;;;-1.80;99.90;;;;;;5087006;28;20167;-74
2021/01/16 00:38:36;;;;;;;49.58;27.58;;;-1.90;99.90;;;;;;5086670;28;20185;-73
2021/01/16 00:41:04;;;;;;;53.72;26.75;;;-1.80;99.90;;;;;;5086362;28;20051;-75
2021/01/16 00:43:30;;;;;;;49.38;26.13;;;-1.80;99.90;;;;;;5060399;28;20106;-74
2021/01/16 00:45:57;;;;;;;52.00;28.13;;;-1.90;99.90;;;;;;5072599;28;20080;-74
2021/01/16 00:48:25;;;;;;;54.35;27.27;;;-1.90;99.90;;;;;;5086064;28;20135;-75
2021/01/16 00:50:54;;;;;;;52.83;26.83;;;-1.90;99.90;;;;;;5086858;28;20158;-75
2021/01/16 00:53:25;;;;;;;48.58;26.77;;;-1.90;99.90;;;;;;5086232;28;20079;-75
2021/01/16 00:55:51;;;;;;;50.38;28.15;;;-1.90;99.90;;;;;;5086265;28;20055;-74
2021/01/16 00:58:20;;;;;;;49.72;26.65;;;-1.90;99.90;;;;;;5066163;28;20052;-75
2021/01/16 01:00:49;;;;;;;45.35;25.80;;;-1.90;99.90;;;;;;5048552;28;20054;-74
2021/01/16 01:03:22;;;;;;;49.53;27.02;;;-1.90;99.90;;;;;;5085003;28;20044;-74
2021/01/16 01:05:54;;;;;;;51.75;27.20;;;-1.90;99.90;;;;;;5056044;28;20076;-75
2021/01/16 01:08:32;;;;;;;51.42;26.45;;;-1.90;99.90;;;;;;5047689;28;20178;-75
2021/01/16 01:10:59;;;;;;;47.63;25.35;;;-1.90;99.90;;;;;;5078114;28;20113;-74
2021/01/16 01:13:28;;;;;;;51.60;27.33;;;-1.90;99.90;;;;;;5085822;28;20048;-75
2021/01/16 01:15:56;;;;;;;49.45;25.42;;;-2.00;99.90;;;;;;5086347;28;20218;-74
2021/01/16 01:18:25;;;;;;;55.70;27.42;;;-2.00;99.90;;;;;;5049381;28;20052;-75
2021/01/16 01:20:51;;;;;;;51.03;25.13;;;-2.00;99.90;;;;;;5047986;28;20080;-75
2021/01/16 01:23:19;;;;;;;47.75;26.55;;;-2.00;99.90;;;;;;5061366;28;20490;-75
2021/01/16 01:25:45;;;;;;;50.67;26.02;;;-2.00;99.90;;;;;;5055587;28;20048;-74
2021/01/16 01:28:12;;;;;;;54.10;27.55;;;-1.90;99.90;;;;;;5066857;28;20099;-76
2021/01/16 01:30:41;;;;;;;51.20;27.33;;;-2.00;99.90;;;;;;5086277;28;20048;-75
2021/01/16 01:33:17;;;;;;;53.05;27.48;;;-2.00;99.90;;;;;;5085319;28;20044;-76
2021/01/16 01:35:46;;;;;;;52.88;27.23;;;-2.00;99.90;;;;;;5085293;28;20778;-76
2021/01/16 01:38:19;;;;;;;51.78;27.90;;;-2.00;99.90;;;;;;5076187;28;20482;-75
2021/01/16 01:40:46;;;;;;;55.97;27.55;;;-2.00;99.90;;;;;;5048862;28;20095;-75
2021/01/16 01:43:13;;;;;;;50.67;27.63;;;-2.00;99.90;;;;;;5060178;28;20048;-75
2021/01/16 01:45:40;;;;;;;55.15;26.48;;;-2.00;99.90;;;;;;5061455;28;20082;-74
2021/01/16 01:48:09;;;;;;;46.45;25.90;;;-2.00;99.90;;;;;;5049338;28;20060;-75
2021/01/16 01:50:36;;;;;;;53.17;27.73;;;-2.00;99.90;;;;;;5060477;28;20052;-74
2021/01/16 01:53:04;;;;;;;56.38;28.80;;;-2.00;99.90;;;;;;5070940;28;20060;-76
2021/01/16 01:55:33;;;;;;;54.42;27.83;;;-2.00;99.90;;;;;;5083337;28;20048;-74
2021/01/16 01:58:10;;;;;;;55.33;27.42;;;-2.00;99.90;;;;;;5068101;28;20234;-75
2021/01/16 02:00:36;;;;;;;52.97;28.20;;;-2.00;99.90;;;;;;5074371;28;20049;-74
2021/01/16 02:03:04;;;;;;;57.80;28.77;;;-2.00;99.90;;;;;;5063865;28;20075;-75
2021/01/16 02:05:35;;;;;;;53.75;27.35;;;-2.00;99.90;;;;;;5085386;28;20492;-74
2021/01/16 02:08:01;;;;;;;64.72;29.67;;;-2.00;99.90;;;;;;5070405;28;20614;-74
2021/01/16 02:10:28;;;;;;;59.80;30.10;;;-2.00;99.90;;;;;;5075869;28;20535;-75
2021/01/16 02:12:58;;;;;;;52.38;27.17;;;-2.00;99.90;;;;;;5079451;28;20056;-74
2021/01/16 02:15:33;;;;;;;61.95;30.00;;;-2.00;99.90;;;;;;5060054;28;20109;-75
2021/01/16 02:18:21;;;;;;;56.47;28.48;;;-2.00;99.90;;;;;;5078987;28;20052;-74
2021/01/16 02:20:47;;;;;;;57.15;27.45;;;-2.00;99.90;;;;;;5084948;28;20143;-74
2021/01/16 02:23:29;;;;;;;61.95;30.23;;;-2.00;99.90;;;;;;5052397;28;20648;-74
2021/01/16 02:26:07;;;;;;;60.55;29.33;;;-2.00;99.90;;;;;;5084005;28;20088;-75
2021/01/16 02:28:35;;;;;;;54.92;28.23;;;-2.00;99.90;;;;;;5062336;28;20047;-74
2021/01/16 02:31:07;;;;;;;62.45;29.60;;;-2.00;99.90;;;;;;5084829;28;20494;-74
2021/01/16 02:33:36;;;;;;;59.00;28.58;;;-2.00;99.90;;;;;;5083550;28;20528;-75
2021/01/16 02:36:19;;;;;;;59.42;28.58;;;-2.00;99.90;;;;;;5084143;28;20597;-74
2021/01/16 02:39:19;;;;;;;59.97;28.80;;;-2.10;99.90;;;;;;5082501;28;20040;-76
2021/01/16 02:42:07;;;;;;;58.42;29.02;;;-2.00;99.90;;;;;;5079886;28;20039;-74
2021/01/16 02:44:37;;;;;;;64.10;31.42;;;-2.00;99.90;;;;;;5062725;28;20120;-74
2021/01/16 02:47:22;;;;;;;61.50;30.13;;;-2.00;99.90;;;;;;5083621;28;20058;-75
2021/01/16 02:50:16;;;;;;;64.10;30.42;;;-2.00;99.90;;;;;;5079256;28;20125;-75
2021/01/16 02:52:46;;;;;;;66.55;31.08;;;-2.00;99.90;;;;;;5064995;28;20492;-75
2021/01/16 02:55:15;;;;;;;61.42;30.65;;;-2.00;99.90;;;;;;5082302;28;20054;-74
2021/01/16 02:57:47;;;;;;;59.88;29.60;;;-2.00;99.90;;;;;;5081393;28;20040;-74
2021/01/16 03:00:21;;;;;;;65.20;30.37;;;-2.00;99.90;;;;;;5053167;28;20535;-75
2021/01/16 03:02:47;;;;;;;63.92;31.27;;;-2.00;99.90;;;;;;5081255;28;20581;-75
2021/01/16 03:05:17;;;;;;;66.18;32.63;;;-2.00;99.90;;;;;;5066078;28;20089;-74
2021/01/16 03:07:48;;;;;;;65.60;31.50;;;-1.90;99.90;;;;;;5070825;28;20060;-74
2021/01/16 03:10:15;;;;;;;69.82;33.13;;;-2.00;99.90;;;;;;5084190;28;20052;-74
2021/01/16 03:12:42;;;;;;;69.53;32.78;;;-2.00;99.90;;;;;;5055716;28;20493;-74
2021/01/16 03:15:15;;;;;;;63.70;31.98;;;-2.00;99.90;;;;;;5049889;28;20131;-74
2021/01/16 03:17:43;;;;;;;66.78;31.80;;;-1.90;99.90;;;;;;5077826;28;20056;-74
2021/01/16 03:20:18;;;;;;;61.53;30.10;;;-2.00;99.90;;;;;;5083643;28;20144;-74
2021/01/16 03:22:45;;;;;;;60.28;30.75;;;-2.00;99.90;;;;;;5070244;28;20122;-74
2021/01/16 03:25:12;;;;;;;64.85;30.65;;;-2.00;99.90;;;;;;5064742;28;20142;-74
2021/01/16 03:27:40;;;;;;;63.08;30.80;;;-2.00;99.90;;;;;;5072930;28;20151;-75
2021/01/16 03:30:08;;;;;;;69.38;31.58;;;-2.00;99.90;;;;;;5081724;28;20047;-74
2021/01/16 03:32:37;;;;;;;63.33;31.33;;;-2.00;99.90;;;;;;5083899;28;20495;-74
2021/01/16 03:35:05;;;;;;;57.80;29.58;;;-2.00;99.90;;;;;;5059689;28;20129;-75
2021/01/16 03:37:34;;;;;;;62.45;29.45;;;-2.00;99.90;;;;;;5051082;28;20497;-74
2021/01/16 03:40:02;;;;;;;57.63;28.92;;;-2.00;99.90;;;;;;5062176;28;20109;-74
2021/01/16 03:42:29;;;;;;;65.50;32.47;;;-2.00;99.90;;;;;;5084001;28;20040;-74
2021/01/16 03:44:56;;;;;;;66.22;31.88;;;-2.00;99.90;;;;;;5083653;28;20371;-74
2021/01/16 03:47:24;;;;;;;61.97;31.45;;;-2.00;99.90;;;;;;5062872;28;20122;-75
2021/01/16 03:49:50;;;;;;;64.68;30.05;;;-2.00;99.90;;;;;;5062855;28;20117;-75
2021/01/16 03:52:43;;;;;;;59.42;30.48;;;-2.00;99.90;;;;;;5051362;28;20135;-74
2021/01/16 03:55:10;;;;;;;60.40;29.00;;;-2.00;99.90;;;;;;5065484;28;20131;-75
2021/01/16 03:57:37;;;;;;;63.30;30.33;;;-2.00;99.90;;;;;;5086484;28;20070;-74
2021/01/16 04:00:08;;;;;;;55.08;28.92;;;-2.00;99.90;;;;;;5087074;28;20048;-74
2021/01/16 04:02:35;;;;;;;53.95;28.10;;;-2.00;99.90;;;;;;5068917;28;20040;-74
2021/01/16 04:05:03;;;;;;;59.50;30.05;;;-2.00;99.90;;;;;;5085774;28;20123;-75
2021/01/16 04:07:30;;;;;;;59.90;30.80;;;-2.00;99.90;;;;;;5085379;28;20054;-74
2021/01/16 04:09:56;;;;;;;55.47;30.20;;;-1.90;99.90;;;;;;5085213;28;20048;-74
2021/01/16 04:12:24;;;;;;;55.47;27.85;;;-2.00;99.90;;;;;;5085331;28;20064;-75
2021/01/16 04:14:50;;;;;;;64.30;30.70;;;-2.00;99.90;;;;;;5085868;28;20844;-74
2021/01/16 04:17:17;;;;;;;58.83;28.58;;;-1.90;99.90;;;;;;5048487;28;20131;-75
2021/01/16 04:19:44;;;;;;;55.85;28.15;;;-1.90;99.90;;;;;;5067576;28;20046;-75
2021/01/16 04:22:10;;;;;;;56.55;29.45;;;-1.90;99.90;;;;;;5067539;28;20072;-75
2021/01/16 04:24:37;;;;;;;54.28;28.02;;;-2.00;99.90;;;;;;5085034;28;20135;-75
2021/01/16 04:27:05;;;;;;;62.45;29.45;;;-2.00;99.90;;;;;;5086125;28;20518;-75
2021/01/16 04:29:34;;;;;;;60.08;30.10;;;-2.00;99.90;;;;;;5086195;28;20059;-74
2021/01/16 04:32:01;;;;;;;54.30;28.48;;;-2.00;99.90;;;;;;5085999;28;20143;-75
2021/01/16 04:34:29;;;;;;;54.75;28.90;;;-2.00;99.90;;;;;;5085087;28;20048;-75
2021/01/16 04:36:58;;;;;;;58.65;30.63;;;-2.00;99.90;;;;;;5085014;28;20090;-74
2021/01/16 04:39:25;;;;;;;52.92;28.33;;;-2.00;99.90;;;;;;5085667;28;20116;-75
2021/01/16 04:41:53;;;;;;;59.03;30.17;;;-2.00;99.90;;;;;;5084469;28;20060;-75
2021/01/16 04:44:23;;;;;;;53.45;28.08;;;-2.00;99.90;;;;;;5085644;28;20084;-74
2021/01/16 04:46:54;;;;;;;60.67;30.63;;;-2.00;99.90;;;;;;5067216;28;20543;-74
2021/01/16 04:49:23;;;;;;;62.75;30.40;;;-2.00;99.90;;;;;;5082900;28;20052;-76
2021/01/16 04:51:53;;;;;;;54.83;29.13;;;-2.00;99.90;;;;;;5085320;28;20048;-74
2021/01/16 04:54:19;;;;;;;54.45;28.55;;;-2.00;99.90;;;;;;5084859;28;20374;-75
2021/01/16 04:56:46;;;;;;;58.55;28.48;;;-2.00;99.90;;;;;;5067911;28;20796;-75
2021/01/16 04:59:15;;;;;;;55.72;29.40;;;-2.00;99.90;;;;;;5083705;28;20036;-75
2021/01/16 05:01:46;;;;;;;59.22;28.98;;;-2.00;99.90;;;;;;5084167;28;20124;-74
2021/01/16 05:04:24;;;;;;;56.70;28.27;;;-2.00;99.90;;;;;;5084602;28;20090;-75
2021/01/16 05:06:54;;;;;;;54.70;27.13;;;-2.00;99.90;;;;;;5067013;28;20119;-75
2021/01/16 05:09:25;;;;;;;50.65;27.65;;;-2.00;99.90;;;;;;5067478;28;20072;-76
2021/01/16 05:12:10;;;;;;;50.73;27.73;;;-2.00;99.90;;;;;;5066886;28;20069;-76
2021/01/16 05:15:01;;;;;;;47.95;25.75;;;-2.00;99.90;;;;;;5084678;28;20117;-74
2021/01/16 05:17:47;;;;;;;46.80;25.40;;;-2.00;99.90;;;;;;5067778;28;20040;-75
2021/01/16 05:20:14;;;;;;;49.65;25.92;;;-2.00;99.90;;;;;;5085262;28;20055;-74
2021/01/16 05:22:43;;;;;;;51.05;25.55;;;-2.10;99.90;;;;;;5067131;28;20072;-75
2021/01/16 05:25:10;;;;;;;49.88;25.98;;;-2.10;99.90;;;;;;5083438;28;20127;-74
2021/01/16 05:27:38;;;;;;;51.75;27.17;;;-2.10;99.90;;;;;;5067292;28;20093;-74
2021/01/16 05:30:07;;;;;;;50.22;26.17;;;-2.10;99.90;;;;;;5085603;28;20132;-75
2021/01/16 05:32:34;;;;;;;47.17;25.05;;;-2.20;99.90;;;;;;5081917;28;20040;-74
2021/01/16 05:35:18;;;;;;;51.50;27.48;;;-2.10;99.90;;;;;;5066083;28;20076;-75
2021/01/16 05:37:46;;;;;;;52.35;25.85;;;-2.10;99.90;;;;;;5085169;28;20040;-75
2021/01/16 05:40:14;;;;;;;51.80;26.63;;;-2.20;99.90;;;;;;5083835;28;20109;-75
2021/01/16 05:42:43;;;;;;;52.25;26.08;;;-2.10;99.90;;;;;;5085357;28;20141;-79
2021/01/16 05:45:11;;;;;;;48.17;26.30;;;-2.20;99.90;;;;;;5085337;28;20067;-78
2021/01/16 05:47:43;;;;;;;59.38;29.65;;;-2.10;99.90;;;;;;5085332;28;20139;-79
2021/01/16 05:50:13;;;;;;;48.78;25.98;;;-2.20;99.90;;;;;;5066919;28;20333;-79
2021/01/16 05:52:40;;;;;;;48.05;25.20;;;-2.20;99.90;;;;;;5050551;28;20040;-75
2021/01/16 05:55:10;;;;;;;51.47;25.83;;;-2.20;99.90;;;;;;5084532;28;20135;-76
2021/01/16 05:57:43;;;;;;;50.13;26.50;;;-2.20;99.90;;;;;;5082560;28;20052;-75
2021/01/16 06:00:12;;;;;;;55.08;27.48;;;-2.10;99.90;;;;;;5083699;28;20070;-75
2021/01/16 06:02:43;;;;;;;49.38;26.95;;;-2.10;99.90;;;;;;5066764;28;20123;-75
2021/01/16 06:05:13;;;;;;;49.38;26.00;;;-2.10;99.90;;;;;;5084556;28;20428;-75
2021/01/16 06:07:44;;;;;;;50.47;26.02;;;-2.20;99.90;;;;;;5065259;28;20052;-75
2021/01/16 06:10:14;;;;;;;46.78;25.80;;;-2.20;99.90;;;;;;5066186;28;20443;-74
2021/01/16 06:12:44;;;;;;;51.40;26.02;;;-2.20;99.90;;;;;;5085054;28;20048;-74
2021/01/16 06:15:18;;;;;;;54.30;26.73;;;-2.20;99.90;;;;;;5085196;28;20056;-75
2021/01/16 06:17:50;;;;;;;49.58;25.88;;;-2.20;99.90;;;;;;5085007;28;20052;-75
2021/01/16 06:20:20;;;;;;;51.90;27.08;;;-2.20;99.90;;;;;;5083922;28;20127;-76
2021/01/16 06:22:50;;;;;;;51.13;26.08;;;-2.20;99.90;;;;;;5084567;28;20048;-75
2021/01/16 06:25:20;;;;;;;50.92;26.38;;;-2.20;99.90;;;;;;5083975;28;20533;-77
2021/01/16 06:27:49;;;;;;;50.55;26.08;;;-2.20;99.90;;;;;;5066631;28;20478;-76
2021/01/16 06:30:23;;;;;;;49.38;24.95;;;-2.30;99.90;;;;;;5081446;28;20076;-76
2021/01/16 06:32:53;;;;;;;57.22;27.83;;;-2.30;99.90;;;;;;5083060;28;20051;-75
2021/01/16 06:35:28;;;;;;;51.75;25.05;;;-2.30;99.90;;;;;;5062387;28;20825;-77
2021/01/16 06:37:55;;;;;;;50.15;26.30;;;-2.30;99.90;;;;;;5066051;28;20461;-76
2021/01/16 06:40:33;;;;;;;52.30;26.85;;;-2.30;99.90;;;;;;5083723;28;20571;-76
2021/01/16 06:43:07;;;;;;;47.13;25.02;;;-2.20;99.90;;;;;;5068487;28;20051;-75
2021/01/16 06:45:33;;;;;;;50.22;26.63;;;-2.20;99.90;;;;;;5081587;28;20116;-75
2021/01/16 06:48:01;;;;;;;51.35;26.73;;;-2.30;99.90;;;;;;5083859;28;20063;-74
2021/01/16 06:50:36;;;;;;;49.70;24.58;;;-2.30;99.90;;;;;;5082037;28;20895;-76
2021/01/16 06:53:12;;;;;;;45.72;24.63;;;-2.30;99.90;;;;;;5084042;28;20163;-74
2021/01/16 06:55:48;;;;;;;47.85;24.10;;;-2.30;99.90;;;;;;5081705;28;20546;-74
2021/01/16 06:58:18;;;;;;;52.22;25.65;;;-2.20;99.90;;;;;;5083502;28;20157;-74
2021/01/16 07:01:06;;;;;;;51.10;26.83;;;-2.20;99.90;;;;;;5084054;28;20058;-75
2021/01/16 07:03:39;;;;;;;52.85;27.33;;;-2.30;99.90;;;;;;5083393;28;20055;-74
2021/01/16 07:06:07;;;;;;;49.65;25.70;;;-2.20;99.90;;;;;;5079206;28;20065;-75
2021/01/16 07:08:34;;;;;;;52.03;27.23;;;-2.20;99.90;;;;;;5083623;28;20059;-74
2021/01/16 07:11:01;;;;;;;48.72;25.65;;;-2.20;99.90;;;;;;5083335;28;20036;-75
2021/01/16 07:13:32;;;;;;;51.63;26.77;;;-2.30;99.90;;;;;;5083538;28;20044;-74
2021/01/16 07:16:02;;;;;;;47.85;25.90;;;-2.30;99.90;;;;;;5065673;28;20463;-74
2021/01/16 07:18:30;;;;;;;65.30;33.20;;;-2.20;99.90;;;;;;5065310;28;20040;-74
2021/01/16 07:20:58;;;;;;;56.28;29.20;;;-2.10;99.90;;;;;;5084024;28;20067;-75
2021/01/16 07:23:25;;;;;;;53.15;29.50;;;-2.10;99.90;;;;;;5065055;28;20127;-74
2021/01/16 07:25:55;;;;;;;56.47;27.20;;;-2.10;99.90;;;;;;5069035;28;20055;-74
2021/01/16 07:28:23;;;;;;;55.00;28.60;;;-2.10;99.90;;;;;;5086523;28;20126;-75
2021/01/16 07:30:53;;;;;;;51.88;27.40;;;-2.10;99.90;;;;;;5087914;28;20077;-75
2021/01/16 07:33:19;;;;;;;47.88;25.20;;;-2.00;99.90;;;;;;5084365;28;20049;-74
2021/01/16 07:35:50;;;;;;;54.63;27.15;;;-2.10;99.90;;;;;;5087864;28;20131;-74
2021/01/16 07:38:18;;;;;;;48.20;26.83;;;-2.00;99.90;;;;;;5070169;28;20105;-75
2021/01/16 07:40:47;;;;;;;49.58;25.80;;;-2.00;99.90;;;;;;5085721;28;20048;-74
2021/01/16 07:43:28;;;;;;;52.47;25.55;;;-2.00;99.90;;;;;;5069576;28;20109;-74
2021/01/16 07:46:05;;;;;;;49.28;25.55;;;-1.90;99.90;;;;;;5087362;28;20074;-74
2021/01/16 07:48:32;;;;;;;51.63;27.00;;;-2.00;99.90;;;;;;5069605;28;20036;-75
2021/01/16 07:51:01;;;;;;;50.33;26.73;;;-2.00;99.90;;;;;;5085633;28;20718;-74
2021/01/16 07:53:29;;;;;;;45.17;25.23;;;-1.90;99.90;;;;;;5083971;28;20067;-75
2021/01/16 07:56:21;;;;;;;49.80;27.08;;;-1.90;99.90;;;;;;5086429;28;20508;-75
2021/01/16 07:59:24;;;;;;;43.83;24.08;;;-2.00;99.90;;;;;;5086421;28;20052;-75
2021/01/16 08:02:09;;;;;;;43.72;23.88;;;-1.90;99.90;;;;;;5071576;28;20051;-75
2021/01/16 08:04:55;;;;;;;51.00;25.55;;;-1.90;99.90;;;;;;5084573;28;20070;-75
2021/01/16 08:07:46;;;;;;;47.03;25.35;;;-1.90;99.90;;;;;;5086174;28;20110;-75
2021/01/16 08:10:18;;;;;;;50.65;25.85;;;-1.80;99.90;;;;;;5085100;28;20130;-75
2021/01/16 08:12:50;;;;;;;43.30;24.33;;;-1.80;99.90;;;;;;5086297;28;20123;-75
2021/01/16 08:15:17;;;;;;;;;;;-1.70;99.90;;;;;;5087389;28;21024;-76
2021/01/16 08:17:46;;;;;;;39.05;21.92;;;-1.70;99.90;;;;;;5068160;28;19919;-76
2021/01/16 08:20:20;;;;;;;37.67;22.30;;;-1.70;99.90;;;;;;5086033;28;20101;-75
2021/01/16 08:22:53;;;;;;;41.10;23.63;;;-1.70;99.90;;;;;;5067957;28;20077;-75
2021/01/16 08:25:27;;;;;;;37.22;21.05;;;-1.70;99.90;;;;;;5086299;28;20047;-75
2021/01/16 08:27:57;;;;;;;34.72;20.55;;;-1.60;99.90;;;;;;5084910;28;20082;-74
2021/01/16 08:30:25;;;;;;;41.65;23.35;;;-1.60;99.90;;;;;;5086501;28;20044;-76
2021/01/16 08:32:54;;;;;;;39.08;22.08;;;-1.60;99.90;;;;;;5068956;28;20074;-74
2021/01/16 08:35:41;;;;;;;37.28;21.25;;;-1.40;99.90;;;;;;5086604;28;20059;-75
2021/01/16 08:38:16;;;;;;;35.95;20.98;;;-1.30;99.90;;;;;;5086403;28;20117;-75
2021/01/16 08:41:08;;;;;;;35.72;20.75;;;-1.30;99.90;;;;;;5085902;28;20059;-74
2021/01/16 08:43:38;;;;;;;39.07;21.43;;;-1.20;99.90;;;;;;5085517;28;20482;-75
2021/01/16 08:46:34;;;;;;;40.40;20.85;;;-1.10;99.90;;;;;;5086428;28;20044;-74
2021/01/16 08:49:07;;;;;;;32.88;19.65;;;-1.10;99.90;;;;;;5081598;28;20075;-74
2021/01/16 08:51:36;;;;;;;30.77;18.30;;;-1.00;99.90;;;;;;5048432;28;20052;-74
2021/01/16 08:54:09;;;;;;;34.13;18.35;;;-1.00;99.90;;;;;;5083891;28;20123;-75
2021/01/16 08:56:36;;;;;;;31.23;18.30;;;-1.00;99.90;;;;;;5085879;28;20086;-74
2021/01/16 08:59:20;;;;;;;33.58;18.88;;;-1.00;99.90;;;;;;5054730;28;20049;-73
2021/01/16 09:01:53;;;;;;;33.70;20.25;;;-1.00;99.90;;;;;;5086095;28;20490;-74
2021/01/16 09:04:29;;;;;;;36.05;19.33;;;-0.90;99.90;;;;;;5085792;28;20142;-74
2021/01/16 09:07:14;;;;;;;33.47;18.83;;;-0.90;99.90;;;;;;5074280;28;20128;-74
2021/01/16 09:09:51;;;;;;;35.50;19.88;;;-0.90;99.90;;;;;;5053720;28;20044;-74
2021/01/16 09:12:23;;;;;;;35.25;18.92;;;-0.80;99.90;;;;;;5085873;28;20056;-75
2021/01/16 09:14:49;;;;;;;28.98;16.98;;;-0.70;99.90;;;;;;5086382;28;20070;-74
2021/01/16 09:17:23;;;;;;;29.80;17.85;;;-0.60;99.90;;;;;;5085852;28;20052;-74
2021/01/16 09:19:57;;;;;;;26.92;16.63;;;-0.70;99.90;;;;;;5082030;28;20048;-74
2021/01/16 09:22:31;;;;;;;26.30;16.60;;;-0.70;99.90;;;;;;5082315;28;20106;-75
2021/01/16 09:25:20;;;;;;;28.55;16.92;;;-0.70;99.90;;;;;;5083075;28;20108;-74
2021/01/16 09:27:48;;;;;;;23.67;15.20;;;-0.70;99.90;;;;;;5067446;28;20071;-74
2021/01/16 09:30:27;;;;;;;27.58;15.73;;;-0.70;99.90;;;;;;5082505;28;20482;-74
2021/01/16 09:32:54;;;;;;;27.30;15.95;;;-0.70;99.90;;;;;;5067835;28;20040;-74
2021/01/16 09:35:40;;;;;;;29.30;16.92;;;-0.80;99.90;;;;;;5085385;28;20139;-74
2021/01/16 09:38:21;;;;;;;31.30;18.05;;;-0.80;99.90;;;;;;5065979;28;20144;-74
2021/01/16 09:40:50;;;;;;;34.55;19.05;;;-0.80;99.90;;;;;;5060204;28;20059;-75
2021/01/16 09:43:19;;;;;;;30.83;17.38;;;-0.80;99.90;;;;;;5079197;28;20090;-74
2021/01/16 09:45:53;;;;;;;30.02;17.08;;;-0.70;99.90;;;;;;5084834;28;20040;-75
2021/01/16 09:48:41;;;;;;;33.47;18.30;;;-0.60;99.90;;;;;;5082067;28;20078;-76
2021/01/16 09:51:11;;;;;;;29.33;17.00;;;-0.50;99.90;;;;;;5083429;28;20459;-75
2021/01/16 09:53:39;;;;;;;30.42;18.10;;;-0.40;99.90;;;;;;5063152;28;20044;-75
2021/01/16 09:56:07;;;;;;;27.15;17.08;;;-0.50;99.90;;;;;;5078059;28;20049;-75
2021/01/16 09:58:39;;;;;;;27.48;16.92;;;-0.40;99.90;;;;;;5065666;28;20059;-75
2021/01/16 10:01:32;;;;;;;;;;;-0.40;99.90;;;;;;5063259;28;20056;-76
2021/01/16 10:04:19;;;;;;;27.67;17.55;;;-0.40;99.90;;;;;;5079319;28;20603;-74
2021/01/16 10:06:49;;;;;;;30.08;17.98;;;-0.20;99.90;;;;;;5083992;28;20399;-74
2021/01/16 10:09:21;;;;;;;28.67;17.42;;;-0.20;99.90;;;;;;5080164;28;20084;-75
2021/01/16 10:11:48;;;;;;;27.95;16.75;;;-0.20;99.90;;;;;;5077495;28;20048;-75
2021/01/16 10:14:21;;;;;;;27.98;17.38;;;-0.10;99.90;;;;;;5063759;28;20059;-75
2021/01/16 10:16:48;;;;;;;29.08;17.00;;;0.00;99.90;;;;;;5074790;28;20155;-75
2021/01/16 10:19:16;;;;;;;27.88;17.52;;;0.20;99.90;;;;;;5066472;28;20116;-75
2021/01/16 10:21:50;;;;;;;24.92;16.02;;;0.40;99.90;;;;;;5084908;28;20094;-73
2021/01/16 10:24:23;;;;;;;28.30;16.85;;;0.40;99.90;;;;;;5066208;28;20052;-76
2021/01/16 10:26:51;;;;;;;27.65;16.83;;;0.50;99.90;;;;;;5084221;28;20052;-76
2021/01/16 10:29:40;;;;;;;24.60;14.60;;;0.60;99.90;;;;;;5068214;28;20052;-73
2021/01/16 10:32:23;;;;;;;23.88;15.32;;;0.80;99.90;;;;;;5063504;28;20127;-75
2021/01/16 10:34:58;;;;;;;24.92;14.63;;;0.90;99.90;;;;;;5065877;28;20663;-75
2021/01/16 10:37:29;;;;;;;22.80;14.73;;;1.10;99.90;;;;;;5076518;28;20079;-77
2021/01/16 10:40:04;;;;;;;22.48;14.07;;;1.50;99.90;;;;;;5060698;28;20212;-76
2021/01/16 10:42:45;;;;;;;19.52;13.20;;;2.10;99.90;;;;;;5066386;28;20418;-76
2021/01/16 10:45:16;;;;;;;17.58;11.43;;;4.00;99.90;;;;;;5082040;28;20040;-76
2021/01/16 10:47:43;;;;;;;14.63;10.43;;;5.70;92.80;;;;;;5084663;28;20040;-77
2021/01/16 10:50:24;;;;;;;13.45;8.75;;;7.50;74.50;;;;;;5082794;28;20453;-76
2021/01/16 10:53:06;;;;;;;13.45;8.93;;;8.50;65.40;;;;;;5044701;28;20439;-77
2021/01/16 10:55:54;;;;;;;10.57;8.50;;;9.80;60.00;;;;;;5085608;28;20108;-77
2021/01/16 10:58:28;;;;;;;11.10;8.68;;;11.00;55.80;;;;;;5085099;28;20040;-75
2021/01/16 11:01:02;;;;;;;9.57;6.55;;;11.60;52.20;;;;;;5055069;28;20047;-77
2021/01/16 11:03:33;;;;;;;6.85;6.15;;;12.00;50.50;;;;;;5078207;28;20044;-77
2021/01/16 11:06:12;;;;;;;8.18;6.20;;;11.50;49.20;;;;;;5067801;28;20458;-76
2021/01/16 11:08:39;;;;;;;7.13;5.90;;;11.60;49.50;;;;;;5069647;28;20060;-75
2021/01/16 11:11:26;;;;;;;5.82;4.43;;;12.20;45.90;;;;;;5086527;28;20406;-75
2021/01/16 11:13:55;;;;;;;4.70;4.15;;;12.10;43.70;;;;;;5080752;28;20430;-75
2021/01/16 11:16:27;;;;;;;7.55;5.03;;;12.40;44.20;;;;;;5068909;28;20140;-76
2021/01/16 11:19:08;;;;;;;6.75;4.40;;;12.70;43.80;;;;;;5086571;28;20071;-75
2021/01/16 11:21:37;;;;;;;4.07;3.17;;;13.30;43.50;;;;;;5068430;28;20044;-76
2021/01/16 11:24:36;;;;;;;4.35;3.72;;;13.20;40.60;;;;;;5087975;28;20051;-74
2021/01/16 11:27:09;;;;;;;4.35;3.67;;;12.40;41.40;;;;;;5066739;28;20123;-75
2021/01/16 11:29:45;;;;;;;4.78;4.28;;;12.90;42.00;;;;;;5087528;28;20462;-76
2021/01/16 11:32:21;;;;;;;3.05;2.58;;;13.30;40.40;;;;;;5087134;28;20129;-76
2021/01/16 11:35:08;;;;;;;3.72;3.30;;;13.50;39.60;;;;;;5087070;28;20036;-75
2021/01/16 11:37:47;;;;;;;4.57;2.90;;;13.00;39.60;;;;;;5066047;28;20079;-75
2021/01/16 11:40:33;;;;;;;3.78;3.30;;;11.80;41.50;;;;;;5087581;28;20064;-76
2021/01/16 11:43:06;;;;;;;4.07;3.35;;;11.10;43.20;;;;;;5085116;28;20073;-76
2021/01/16 11:45:35;;;;;;;9.18;3.80;;;11.10;42.50;;;;;;5064418;28;20094;-76
2021/01/16 11:48:07;;;;;;;4.25;3.40;;;10.40;43.80;;;;;;5079415;28;20506;-77
2021/01/16 11:50:44;;;;;;;7.22;5.10;;;10.60;44.40;;;;;;5080234;28;20056;-78
2021/01/16 11:53:12;;;;;;;13.50;5.90;;;10.90;44.00;;;;;;5056276;28;20117;-77
2021/01/16 11:55:39;;;;;;;6.18;4.28;;;10.50;44.70;;;;;;5082641;28;20082;-77
2021/01/16 11:58:09;;;;;;;4.93;3.58;;;9.00;45.60;;;;;;5068991;28;20056;-77
2021/01/16 12:00:40;;;;;;;7.43;4.63;;;7.10;48.60;;;;;;5085588;28;20658;-77
2021/01/16 12:03:24;;;;;;;7.57;4.45;;;6.20;53.20;;;;;;5069893;28;20040;-76
2021/01/16 12:05:55;;;;;;;4.85;4.10;;;6.90;52.50;;;;;;5056842;28;20132;-76
2021/01/16 12:08:26;;;;;;;6.43;4.53;;;7.10;52.40;;;;;;5059072;28;20048;-76
2021/01/16 12:10:55;;;;;;;6.22;4.72;;;7.70;50.80;;;;;;5082439;28;20048;-76
2021/01/16 12:13:21;;;;;;;7.15;4.55;;;8.20;50.30;;;;;;5062134;28;20053;-77
2021/01/16 12:15:54;;;;;;;5.45;3.95;;;8.70;49.10;;;;;;5064367;28;20062;-76
2021/01/16 12:18:21;;;;;;;5.07;4.35;;;8.70;47.50;;;;;;5066630;28;20056;-76
2021/01/16 12:20:53;;;;;;;5.03;4.00;;;8.10;49.60;;;;;;5057444;28;20048;-75
2021/01/16 12:23:33;;;;;;;6.88;3.83;;;8.10;48.60;;;;;;5050192;28;20048;-76
2021/01/16 12:26:10;;;;;;;5.10;4.30;;;8.50;49.80;;;;;;5059131;28;20044;-77
2021/01/16 12:28:39;;;;;;;4.70;4.13;;;9.10;49.20;;;;;;5058460;28;20552;-77
2021/01/16 12:31:06;;;;;;;5.28;4.13;;;9.40;47.20;;;;;;5067379;28;20072;-77
2021/01/16 12:33:36;;;;;;;5.93;4.60;;;9.30;46.70;;;;;;5065969;28;20055;-75
2021/01/16 12:36:09;;;;;;;8.43;4.57;;;8.10;48.40;;;;;;5080379;28;20153;-74
2021/01/16 12:38:37;;;;;;;6.38;4.90;;;7.00;52.30;;;;;;5061226;28;20073;-75
2021/01/16 12:41:06;;;;;;;9.23;4.95;;;7.40;52.50;;;;;;5053699;28;20137;-76
2021/01/16 12:43:32;;;;;;;8.55;4.97;;;7.60;52.80;;;;;;5067370;28;20072;-75
2021/01/16 12:46:09;;;;;;;7.15;5.20;;;8.10;52.00;;;;;;5064690;28;20102;-75
2021/01/16 12:48:39;;;;;;;8.13;4.82;;;8.10;51.20;;;;;;5062917;28;20044;-75
2021/01/16 12:51:07;;;;;;;8.27;5.60;;;7.10;53.00;;;;;;5049258;28;20049;-74
2021/01/16 12:53:35;;;;;;;9.80;6.05;;;6.40;55.70;;;;;;5051729;28;20103;-74
2021/01/16 12:56:11;;;;;;;8.80;5.82;;;6.80;55.70;;;;;;5065414;28;20483;-75
2021/01/16 12:58:39;;;;;;;5.97;4.80;;;7.50;55.40;;;;;;5053276;28;20647;-75